Time;durP1;ratioP1;P1;durP2;ratioP2;P2;SDS_P1;SDS_P2;PMS_P1;PMS_P2;Temp;Humidity;BMP_temperature;BMP_pressure;BME280_temperature;BME280_humidity;BME280_pressure;Samples;Min_cycle;Max_cycle;Signal;HPM_P1;HPM_P2
2023/02/25 00:01:38;;;;;;;0.50;0.32;;;19.80;65.70;;;;;;4992749;28;20400;-67
2023/02/25 00:04:03;;;;;;;0.80;0.40;;;19.70;65.70;;;;;;4993653;28;20057;-67
2023/02/25 00:06:29;;;;;;;1.65;0.60;;;19.70;65.80;;;;;;4993977;28;20030;-67
2023/02/25 00:08:55;;;;;;;3.13;0.50;;;19.60;65.90;;;;;;4993444;28;20054;-67
2023/02/25 00:11:21;;;;;;;1.73;0.38;;;19.60;66.00;;;;;;4992684;28;20088;-67
2023/02/25 00:13:47;;;;;;;0.88;0.40;;;19.50;66.00;;;;;;4993772;28;20400;-67
2023/02/25 00:16:13;;;;;;;1.13;0.60;;;19.50;66.00;;;;;;4992451;28;20033;-67
2023/02/25 00:18:43;;;;;;;1.02;0.38;;;19.50;66.20;;;;;;4992428;28;20040;-67
2023/02/25 00:21:08;;;;;;;0.90;0.30;;;19.40;65.90;;;;;;4993483;28;20071;-67
2023/02/25 00:23:34;;;;;;;0.93;0.40;;;19.40;66.10;;;;;;4992435;28;20061;-67
2023/02/25 00:26:01;;;;;;;1.58;0.40;;;19.40;66.40;;;;;;4992469;28;20034;-67
2023/02/25 00:28:27;;;;;;;0.60;0.40;;;19.30;66.40;;;;;;4992536;28;20042;-67
2023/02/25 00:30:53;;;;;;;1.00;0.40;;;19.30;66.40;;;;;;4992301;28;20069;-67
2023/02/25 00:33:18;;;;;;;2.20;0.40;;;19.30;66.70;;;;;;4991860;28;20030;-67
2023/02/25 00:35:44;;;;;;;2.17;0.63;;;19.30;66.60;;;;;;4993503;28;20042;-67
2023/02/25 00:38:10;;;;;;;0.82;0.30;;;19.20;66.50;;;;;;4993226;28;20081;-68
2023/02/25 00:40:39;;;;;;;1.48;0.50;;;19.20;66.70;;;;;;4993487;28;20018;-67
2023/02/25 00:43:05;;;;;;;1.70;0.43;;;19.20;66.90;;;;;;4992107;28;20076;-67
2023/02/25 00:45:31;;;;;;;1.45;0.40;;;19.10;66.80;;;;;;4993269;28;20031;-67
2023/02/25 00:47:56;;;;;;;2.05;0.50;;;19.10;66.90;;;;;;4991661;28;20027;-67
2023/02/25 00:50:22;;;;;;;1.00;0.45;;;19.10;67.00;;;;;;4993449;28;20070;-67
2023/02/25 00:52:48;;;;;;;0.63;0.32;;;19.10;67.10;;;;;;4993179;28;20033;-67
2023/02/25 00:55:13;;;;;;;1.50;0.50;;;19.10;67.10;;;;;;4993064;28;20030;-67
2023/02/25 00:57:39;;;;;;;1.35;0.60;;;19.00;67.00;;;;;;4991885;28;20026;-67
2023/02/25 01:00:09;;;;;;;2.38;0.50;;;19.00;67.30;;;;;;4992855;28;20030;-68
2023/02/25 01:02:35;;;;;;;2.17;0.73;;;18.90;67.30;;;;;;4991860;28;20488;-67
2023/02/25 01:05:01;;;;;;;1.52;0.50;;;18.90;67.60;;;;;;4993044;28;20022;-67
2023/02/25 01:07:27;;;;;;;1.67;0.52;;;18.90;67.80;;;;;;4991694;28;20022;-68
2023/02/25 01:09:56;;;;;;;1.60;0.40;;;18.90;67.90;;;;;;4991746;28;20030;-67
2023/02/25 01:12:21;;;;;;;1.15;0.60;;;18.80;67.80;;;;;;4991921;28;20034;-67
2023/02/25 01:14:48;;;;;;;0.70;0.47;;;18.80;67.90;;;;;;4992746;28;20034;-67
2023/02/25 01:17:13;;;;;;;3.72;0.40;;;18.80;68.00;;;;;;4992512;28;20026;-67
2023/02/25 01:19:39;;;;;;;0.95;0.32;;;18.70;68.00;;;;;;4993231;28;20037;-67
2023/02/25 01:22:06;;;;;;;1.05;0.40;;;18.70;68.10;;;;;;4992560;28;20483;-67
2023/02/25 01:24:32;;;;;;;1.65;0.63;;;18.70;68.20;;;;;;4992873;28;20023;-67
2023/02/25 01:26:59;;;;;;;2.50;0.65;;;18.70;68.20;;;;;;4991684;28;20109;-67
2023/02/25 01:29:33;;;;;;;1.35;0.60;;;18.70;69.30;;;;;;4991765;28;20026;-67
2023/02/25 01:32:00;;;;;;;1.30;0.50;;;18.70;68.40;;;;;;4991356;28;20030;-67
2023/02/25 01:34:26;;;;;;;1.50;0.90;;;18.60;68.20;;;;;;4975371;28;20388;-67
2023/02/25 01:36:51;;;;;;;4.18;0.68;;;18.60;68.50;;;;;;4991405;28;20030;-67
2023/02/25 01:39:18;;;;;;;1.63;0.40;;;18.50;68.70;;;;;;4992873;28;20396;-67
2023/02/25 01:41:50;;;;;;;3.85;0.40;;;18.50;68.70;;;;;;4991684;28;20027;-67
2023/02/25 01:44:24;;;;;;;0.90;0.55;;;18.50;68.70;;;;;;4994968;28;20139;-67
2023/02/25 01:46:51;;;;;;;2.65;0.50;;;18.50;68.70;;;;;;4994963;28;20046;-67
2023/02/25 01:49:36;;;;;;;3.45;0.60;;;18.50;68.80;;;;;;4995351;28;20026;-67
2023/02/25 01:52:12;;;;;;;1.38;0.50;;;18.50;69.00;;;;;;4995367;28;20114;-67
2023/02/25 01:54:38;;;;;;;2.70;0.75;;;18.40;69.00;;;;;;4995213;28;20078;-67
2023/02/25 01:57:05;;;;;;;1.52;0.50;;;18.50;69.00;;;;;;4995017;28;20109;-67
2023/02/25 01:59:31;;;;;;;2.53;0.50;;;18.40;69.00;;;;;;4994769;28;20019;-68
2023/02/25 02:01:57;;;;;;;4.60;0.65;;;18.40;69.10;;;;;;4996266;28;20022;-67
2023/02/25 02:04:22;;;;;;;0.88;0.60;;;18.40;69.10;;;;;;4995197;28;20038;-67
2023/02/25 02:06:48;;;;;;;3.08;0.45;;;18.40;69.10;;;;;;4994988;28;20030;-67
2023/02/25 02:09:20;;;;;;;1.63;0.60;;;18.40;69.20;;;;;;4994726;28;20031;-67
2023/02/25 02:11:46;;;;;;;8.63;0.80;;;18.30;69.10;;;;;;4994857;28;20565;-67
2023/02/25 02:14:17;;;;;;;4.43;0.50;;;18.30;69.20;;;;;;4995666;28;20136;-67
2023/02/25 02:17:04;;;;;;;2.03;0.50;;;18.30;69.20;;;;;;4994746;28;20388;-67
2023/02/25 02:19:56;;;;;;;1.05;0.50;;;18.30;69.30;;;;;;4994864;28;20034;-67
2023/02/25 02:22:24;;;;;;;5.80;0.43;;;18.30;69.40;;;;;;4994656;28;20034;-67
2023/02/25 02:24:59;;;;;;;1.45;0.50;;;18.30;69.30;;;;;;4995880;28;20088;-67
2023/02/25 02:27:46;;;;;;;0.90;0.38;;;18.20;69.30;;;;;;4995614;28;20022;-67
2023/02/25 02:30:35;;;;;;;1.92;0.40;;;18.20;69.30;;;;;;4994403;28;20500;-67
2023/02/25 02:33:03;;;;;;;4.68;0.80;;;18.20;69.40;;;;;;4994775;28;20030;-67
2023/02/25 02:35:58;;;;;;;3.00;0.90;;;18.20;69.40;;;;;;4994559;28;20106;-67
2023/02/25 02:38:30;;;;;;;0.47;0.47;;;18.20;69.50;;;;;;4994749;28;20022;-67
2023/02/25 02:41:21;;;;;;;3.40;0.68;;;18.10;69.40;;;;;;4995295;28;20097;-67
2023/02/25 02:43:54;;;;;;;2.45;0.60;;;18.10;69.40;;;;;;4995473;28;20026;-67
2023/02/25 02:46:24;;;;;;;0.77;0.40;;;18.10;69.60;;;;;;4994240;28;20018;-67
2023/02/25 02:48:53;;;;;;;0.60;0.40;;;18.10;69.60;;;;;;4994119;28;20026;-67
2023/02/25 02:51:58;;;;;;;1.80;0.70;;;18.10;69.70;;;;;;4995242;28;20022;-67
2023/02/25 02:54:25;;;;;;;0.80;0.50;;;18.10;69.70;;;;;;5028824;28;20089;-67
2023/02/25 02:56:51;;;;;;;3.75;0.80;;;18.00;69.70;;;;;;5028035;28;20045;-67
2023/02/25 02:59:24;;;;;;;2.28;0.50;;;18.00;69.80;;;;;;5012200;28;20045;-67
2023/02/25 03:02:32;;;;;;;0.45;0.40;;;18.00;69.90;;;;;;4993174;28;20038;-67
2023/02/25 03:05:01;;;;;;;2.40;0.50;;;18.00;69.80;;;;;;4988251;28;20041;-67
2023/02/25 03:07:27;;;;;;;0.40;0.40;;;18.00;69.90;;;;;;4992176;28;20424;-67
2023/02/25 03:09:55;;;;;;;0.57;0.40;;;18.00;70.00;;;;;;4960660;28;20038;-67
2023/02/25 03:12:21;;;;;;;0.65;0.60;;;17.90;70.00;;;;;;4960457;28;20160;-67
2023/02/25 03:14:47;;;;;;;1.60;0.43;;;17.90;70.00;;;;;;4992839;28;20121;-67
2023/02/25 03:17:26;;;;;;;2.05;0.40;;;17.90;70.00;;;;;;4992719;28;20058;-67
2023/02/25 03:19:57;;;;;;;2.67;0.40;;;17.90;70.10;;;;;;4961254;28;20019;-67
2023/02/25 03:22:28;;;;;;;0.88;0.63;;;17.90;70.30;;;;;;4976602;28;20129;-67
2023/02/25 03:25:25;;;;;;;8.35;0.68;;;17.90;70.30;;;;;;4960925;28;20018;-67
2023/02/25 03:27:54;;;;;;;0.77;0.50;;;17.90;70.40;;;;;;4973582;28;20532;-67
2023/02/25 03:30:23;;;;;;;2.55;0.45;;;17.90;70.40;;;;;;4958066;28;20045;-67
2023/02/25 03:33:03;;;;;;;1.25;0.80;;;17.80;70.40;;;;;;4975166;28;20054;-67
2023/02/25 03:35:28;;;;;;;1.58;0.68;;;17.80;70.50;;;;;;4958262;28;20019;-67
2023/02/25 03:37:59;;;;;;;1.63;0.50;;;17.80;70.50;;;;;;4973965;28;20513;-67
2023/02/25 03:40:25;;;;;;;4.78;0.70;;;17.80;70.50;;;;;;4975050;28;20026;-67
2023/02/25 03:42:57;;;;;;;5.78;0.65;;;17.80;70.50;;;;;;4957661;28;20031;-67
2023/02/25 03:45:23;;;;;;;0.70;0.40;;;17.80;70.60;;;;;;4973616;28;20085;-67
2023/02/25 03:47:49;;;;;;;2.85;0.70;;;17.80;70.60;;;;;;4957892;28;20038;-67
2023/02/25 03:50:20;;;;;;;2.08;1.10;;;17.70;70.70;;;;;;4974921;28;20023;-67
2023/02/25 03:52:46;;;;;;;1.90;0.50;;;17.70;70.80;;;;;;4957861;28;20022;-67
2023/02/25 03:55:12;;;;;;;2.22;0.55;;;17.70;70.70;;;;;;4974642;28;20149;-67
2023/02/25 03:57:39;;;;;;;3.35;0.55;;;17.70;70.80;;;;;;4957447;28;20096;-67
2023/02/25 04:00:21;;;;;;;2.30;0.57;;;17.70;71.00;;;;;;4985201;28;20552;-67
2023/02/25 04:02:47;;;;;;;4.25;0.65;;;17.70;70.90;;;;;;4993996;28;20018;-67
2023/02/25 04:05:13;;;;;;;2.78;0.60;;;17.70;70.90;;;;;;4976526;28;20358;-67
2023/02/25 04:07:38;;;;;;;1.02;0.45;;;17.60;70.90;;;;;;4993773;28;20022;-67
2023/02/25 04:10:05;;;;;;;4.85;0.70;;;17.60;71.00;;;;;;4993869;28;20037;-67
2023/02/25 04:12:31;;;;;;;3.22;0.40;;;17.60;71.00;;;;;;4992558;28;20030;-67
2023/02/25 04:14:56;;;;;;;5.00;0.63;;;17.60;70.90;;;;;;4993968;28;20029;-68
2023/02/25 04:17:22;;;;;;;0.80;0.60;;;17.60;71.00;;;;;;4993611;28;20030;-67
2023/02/25 04:19:48;;;;;;;6.72;0.80;;;17.60;71.00;;;;;;4993951;28;20428;-67
2023/02/25 04:22:13;;;;;;;2.85;0.50;;;17.60;71.00;;;;;;4992288;28;20424;-67
2023/02/25 04:24:39;;;;;;;1.42;0.73;;;17.60;71.00;;;;;;4993789;28;20388;-67
2023/02/25 04:27:05;;;;;;;3.03;0.82;;;17.60;71.00;;;;;;4992203;28;20091;-67
2023/02/25 04:29:30;;;;;;;8.50;0.57;;;17.60;71.00;;;;;;4992318;28;20033;-67
2023/02/25 04:31:56;;;;;;;3.22;0.88;;;17.60;71.00;;;;;;4993491;28;20034;-67
2023/02/25 04:34:22;;;;;;;2.80;0.65;;;17.60;71.00;;;;;;4992402;28;20400;-67
2023/02/25 04:36:47;;;;;;;1.45;0.73;;;17.50;71.00;;;;;;4992210;28;20058;-67
2023/02/25 04:39:14;;;;;;;3.35;0.63;;;17.50;70.90;;;;;;4992006;28;20370;-67
2023/02/25 04:41:40;;;;;;;0.93;0.50;;;17.50;71.00;;;;;;4992263;28;20025;-67
2023/02/25 04:44:06;;;;;;;1.75;0.63;;;17.50;71.00;;;;;;4993702;28;20022;-67
2023/02/25 04:46:39;;;;;;;1.00;0.50;;;17.50;71.00;;;;;;4992059;28;20014;-67
2023/02/25 04:49:05;;;;;;;2.95;0.63;;;17.50;71.10;;;;;;4992233;28;20022;-67
2023/02/25 04:51:31;;;;;;;2.33;0.50;;;17.50;71.10;;;;;;4992102;28;20076;-67
2023/02/25 04:53:56;;;;;;;1.00;0.30;;;17.50;71.10;;;;;;4991727;28;20068;-67
2023/02/25 04:56:22;;;;;;;2.33;0.55;;;17.50;71.20;;;;;;4991939;28;20149;-68
2023/02/25 04:58:48;;;;;;;1.73;0.68;;;17.40;71.00;;;;;;4993169;28;20050;-67
2023/02/25 05:01:13;;;;;;;2.50;0.52;;;17.40;71.10;;;;;;4991686;28;20064;-68
2023/02/25 05:03:39;;;;;;;1.10;0.30;;;17.40;71.20;;;;;;4991977;28;20027;-67
2023/02/25 05:06:05;;;;;;;3.13;0.47;;;17.40;71.00;;;;;;4991909;28;20027;-68
2023/02/25 05:08:31;;;;;;;1.42;0.35;;;17.40;71.00;;;;;;4991442;28;20373;-67
2023/02/25 05:10:57;;;;;;;2.25;0.60;;;17.40;71.20;;;;;;4993002;28;20038;-68
2023/02/25 05:13:23;;;;;;;1.77;0.85;;;17.40;71.20;;;;;;4991746;28;20447;-68
2023/02/25 05:15:49;;;;;;;1.30;0.50;;;17.40;71.20;;;;;;4993061;28;20548;-67
2023/02/25 05:18:14;;;;;;;1.38;0.50;;;17.40;71.20;;;;;;4993216;28;20023;-67
2023/02/25 05:20:41;;;;;;;2.03;0.50;;;17.40;71.30;;;;;;4995617;28;20417;-67
2023/02/25 05:23:06;;;;;;;2.30;0.52;;;17.40;71.20;;;;;;4995715;28;20077;-68
2023/02/25 05:25:32;;;;;;;1.92;0.50;;;17.30;71.20;;;;;;4996954;28;20031;-68
2023/02/25 05:27:58;;;;;;;1.95;0.70;;;17.30;71.30;;;;;;4979647;28;20033;-68
2023/02/25 05:30:24;;;;;;;1.08;0.40;;;17.30;71.50;;;;;;4995767;28;20026;-68
2023/02/25 05:32:49;;;;;;;2.20;0.40;;;17.30;71.60;;;;;;4995592;28;20523;-68
2023/02/25 05:35:15;;;;;;;1.58;0.55;;;17.30;71.50;;;;;;4996809;28;20030;-68
2023/02/25 05:37:41;;;;;;;1.67;0.70;;;17.30;71.50;;;;;;4996587;28;20485;-68
2023/02/25 05:40:08;;;;;;;0.57;0.40;;;17.30;71.50;;;;;;4996578;28;20030;-68
2023/02/25 05:42:34;;;;;;;0.90;0.45;;;17.30;71.60;;;;;;4995330;28;20023;-67
2023/02/25 05:44:59;;;;;;;1.20;0.63;;;17.30;71.50;;;;;;4996662;28;20089;-67
2023/02/25 05:47:25;;;;;;;3.80;0.73;;;17.20;71.50;;;;;;4996372;28;20496;-67
2023/02/25 05:49:51;;;;;;;4.40;0.50;;;17.20;71.60;;;;;;4995305;28;20045;-68
2023/02/25 05:52:17;;;;;;;2.72;0.45;;;17.20;71.60;;;;;;4996226;28;20022;-68
2023/02/25 05:54:42;;;;;;;4.88;0.50;;;17.20;71.60;;;;;;4996557;28;20030;-68
2023/02/25 05:57:08;;;;;;;1.00;0.32;;;17.20;71.50;;;;;;4995260;28;20022;-67
2023/02/25 05:59:35;;;;;;;1.77;0.52;;;17.20;71.60;;;;;;4995991;28;20109;-67
2023/02/25 06:02:01;;;;;;;3.15;0.57;;;17.20;71.60;;;;;;4995349;28;20022;-67
2023/02/25 06:04:27;;;;;;;4.38;0.95;;;17.20;71.70;;;;;;4995041;28;20029;-68
2023/02/25 06:06:53;;;;;;;1.52;0.40;;;17.20;71.90;;;;;;4996157;28;20034;-67
2023/02/25 06:09:18;;;;;;;1.13;0.60;;;17.10;71.80;;;;;;4996144;28;20124;-67
2023/02/25 06:11:45;;;;;;;3.85;0.50;;;17.20;71.80;;;;;;4994829;28;20504;-68
2023/02/25 06:14:11;;;;;;;0.75;0.57;;;17.10;71.70;;;;;;4995105;28;20046;-68
2023/02/25 06:16:39;;;;;;;0.95;0.52;;;17.10;71.80;;;;;;4994662;28;20100;-68
2023/02/25 06:19:08;;;;;;;2.10;0.43;;;17.10;71.80;;;;;;4994951;28;20027;-68
2023/02/25 06:21:34;;;;;;;5.18;0.80;;;17.10;71.90;;;;;;4995478;28;20050;-67
2023/02/25 06:24:00;;;;;;;2.03;0.60;;;17.10;71.90;;;;;;4994613;28;20108;-67
2023/02/25 06:26:26;;;;;;;3.00;0.57;;;17.10;72.00;;;;;;4995771;28;20464;-67
2023/02/25 06:28:52;;;;;;;1.08;0.43;;;17.10;72.10;;;;;;4995773;28;20050;-67
2023/02/25 06:31:18;;;;;;;1.95;0.50;;;17.10;72.10;;;;;;4994325;28;20512;-67
2023/02/25 06:33:45;;;;;;;1.10;0.50;;;17.10;72.10;;;;;;4994674;28;20105;-67
2023/02/25 06:36:11;;;;;;;1.02;0.63;;;17.10;72.20;;;;;;4994392;28;20073;-67
2023/02/25 06:38:37;;;;;;;1.98;0.50;;;17.00;72.20;;;;;;4994234;28;20030;-68
2023/02/25 06:41:06;;;;;;;1.27;0.60;;;17.00;72.20;;;;;;4995626;28;20030;-67
2023/02/25 06:43:32;;;;;;;1.02;0.40;;;17.00;72.40;;;;;;4994200;28;20121;-68
2023/02/25 06:45:58;;;;;;;8.57;0.50;;;17.00;72.40;;;;;;4995533;28;20106;-67
2023/02/25 06:48:24;;;;;;;2.30;0.60;;;17.00;72.60;;;;;;4995336;28;20026;-67
2023/02/25 06:50:49;;;;;;;4.78;0.40;;;17.00;72.60;;;;;;4995192;28;20027;-68
2023/02/25 06:53:15;;;;;;;2.35;0.30;;;17.00;72.50;;;;;;4995392;28;20041;-67
2023/02/25 06:55:40;;;;;;;1.25;0.50;;;17.00;72.40;;;;;;4995460;28;20030;-67
2023/02/25 06:58:06;;;;;;;1.70;0.43;;;17.00;72.50;;;;;;4995184;28;20054;-67
2023/02/25 07:00:32;;;;;;;1.92;0.55;;;17.00;72.50;;;;;;4994973;28;20509;-67
2023/02/25 07:02:57;;;;;;;0.43;0.35;;;17.00;72.60;;;;;;4993942;28;20027;-67
2023/02/25 07:05:23;;;;;;;2.00;0.45;;;17.00;72.60;;;;;;4995006;28;20096;-67
2023/02/25 07:07:49;;;;;;;2.45;0.60;;;17.00;72.70;;;;;;4995157;28;20448;-67
2023/02/25 07:10:14;;;;;;;1.40;0.60;;;16.90;72.50;;;;;;4995138;28;20023;-67
2023/02/25 07:12:40;;;;;;;1.83;0.50;;;16.90;72.50;;;;;;4994820;28;20030;-67
2023/02/25 07:15:06;;;;;;;0.40;0.40;;;16.90;72.50;;;;;;4994851;28;20493;-67
2023/02/25 07:17:32;;;;;;;4.53;0.75;;;16.90;72.60;;;;;;4994682;28;20031;-67
2023/02/25 07:19:57;;;;;;;3.17;0.38;;;16.90;72.50;;;;;;4994758;28;20085;-67
2023/02/25 07:22:23;;;;;;;4.13;0.60;;;16.90;72.50;;;;;;4994539;28;20109;-68
2023/02/25 07:24:50;;;;;;;1.88;0.40;;;16.90;72.50;;;;;;4994711;28;20018;-67
2023/02/25 07:27:15;;;;;;;2.47;0.60;;;16.90;72.60;;;;;;4994779;28;20030;-68
2023/02/25 07:29:41;;;;;;;1.25;0.45;;;16.90;72.60;;;;;;4993381;28;20374;-67
2023/02/25 07:32:07;;;;;;;0.65;0.40;;;16.90;72.60;;;;;;4993489;28;20030;-67
2023/02/25 07:34:34;;;;;;;1.45;0.50;;;16.90;72.70;;;;;;4994277;28;20109;-68
2023/02/25 07:37:00;;;;;;;2.63;0.65;;;16.90;72.70;;;;;;4993373;28;20084;-67
2023/02/25 07:39:25;;;;;;;1.85;0.35;;;16.90;72.80;;;;;;4993253;28;20022;-68
2023/02/25 07:41:51;;;;;;;1.27;0.40;;;16.90;72.90;;;;;;4993704;28;20081;-67
2023/02/25 07:44:17;;;;;;;7.70;0.60;;;16.90;72.90;;;;;;4994516;28;20443;-67
2023/02/25 07:46:42;;;;;;;1.17;0.55;;;16.90;72.90;;;;;;4993057;28;20097;-67
2023/02/25 07:49:08;;;;;;;1.25;0.75;;;16.90;73.00;;;;;;4994168;28;20400;-67
2023/02/25 07:51:33;;;;;;;0.80;0.30;;;16.80;73.00;;;;;;4992989;28;20403;-67
2023/02/25 07:53:59;;;;;;;1.05;0.60;;;16.80;72.90;;;;;;4994324;28;20023;-67
2023/02/25 07:56:26;;;;;;;2.80;0.40;;;16.90;73.00;;;;;;4993201;28;20404;-67
2023/02/25 07:58:52;;;;;;;2.58;0.68;;;16.90;73.10;;;;;;4992876;28;20077;-68
2023/02/25 08:01:24;;;;;;;5.35;0.75;;;16.80;72.90;;;;;;4994056;28;20562;-67
2023/02/25 08:03:51;;;;;;;3.97;0.60;;;16.80;73.00;;;;;;4993795;28;20054;-67
2023/02/25 08:06:17;;;;;;;1.20;0.50;;;16.80;73.10;;;;;;4993937;28;20117;-67
2023/02/25 08:08:42;;;;;;;2.28;0.60;;;16.80;73.10;;;;;;4993735;28;20505;-67
2023/02/25 08:11:09;;;;;;;6.03;0.73;;;16.80;73.10;;;;;;4993974;28;20046;-68
2023/02/25 08:13:35;;;;;;;0.73;0.38;;;16.80;73.10;;;;;;4992625;28;20034;-67
2023/02/25 08:16:05;;;;;;;0.73;0.40;;;16.80;73.10;;;;;;4992518;28;20030;-67
2023/02/25 08:18:30;;;;;;;2.25;0.77;;;16.80;73.20;;;;;;4992279;28;20026;-67
2023/02/25 08:20:57;;;;;;;1.10;0.70;;;16.80;73.20;;;;;;4993485;28;20045;-68
2023/02/25 08:23:26;;;;;;;1.00;0.60;;;16.80;73.10;;;;;;4993674;28;20025;-67
2023/02/25 08:25:54;;;;;;;0.38;0.30;;;16.80;73.10;;;;;;4993548;28;20023;-67
2023/02/25 08:28:21;;;;;;;1.15;0.50;;;16.80;73.20;;;;;;4992527;28;20026;-67
2023/02/25 08:30:47;;;;;;;2.58;0.50;;;16.80;73.20;;;;;;4992308;28;20417;-67
2023/02/25 08:33:13;;;;;;;1.33;0.40;;;16.70;73.20;;;;;;4992105;28;20081;-67
2023/02/25 08:35:38;;;;;;;0.93;0.32;;;16.70;73.20;;;;;;4993419;28;20026;-67
2023/02/25 08:38:04;;;;;;;0.65;0.40;;;16.70;73.10;;;;;;4993259;28;20065;-67
2023/02/25 08:40:30;;;;;;;2.65;0.57;;;16.70;73.20;;;;;;4993472;28;20049;-68
2023/02/25 08:42:56;;;;;;;3.47;0.50;;;16.80;73.30;;;;;;4993370;28;20092;-67
2023/02/25 08:45:22;;;;;;;1.02;0.40;;;16.70;73.20;;;;;;4992069;28;20469;-67
2023/02/25 08:47:48;;;;;;;1.05;0.40;;;16.70;73.30;;;;;;4993038;28;20056;-68
2023/02/25 08:50:15;;;;;;;1.25;0.40;;;16.70;73.10;;;;;;4993285;28;20022;-67
2023/02/25 08:52:41;;;;;;;1.25;0.50;;;16.70;73.30;;;;;;4993055;28;20030;-67
2023/02/25 08:55:07;;;;;;;2.10;0.50;;;16.70;73.30;;;;;;4993314;28;20504;-67
2023/02/25 08:57:33;;;;;;;2.92;0.55;;;16.70;73.30;;;;;;4993012;28;20034;-68
2023/02/25 08:59:58;;;;;;;1.65;0.70;;;16.70;73.20;;;;;;4991969;28;20132;-68
2023/02/25 09:02:24;;;;;;;0.65;0.40;;;16.70;73.30;;;;;;4992862;28;20149;-67
2023/02/25 09:04:50;;;;;;;1.95;0.40;;;16.70;73.40;;;;;;4993041;28;20034;-67
2023/02/25 09:07:15;;;;;;;1.02;0.40;;;16.60;73.30;;;;;;4991788;28;20089;-67
2023/02/25 09:09:42;;;;;;;1.42;0.40;;;16.60;73.30;;;;;;4992900;28;20030;-68
2023/02/25 09:12:08;;;;;;;1.70;0.30;;;16.70;73.50;;;;;;4993121;28;20030;-67
2023/02/25 09:14:33;;;;;;;3.28;0.32;;;16.60;73.40;;;;;;4992865;28;20022;-68
2023/02/25 09:17:02;;;;;;;1.52;0.47;;;16.70;73.40;;;;;;4991521;28;20037;-67
2023/02/25 09:19:27;;;;;;;0.90;0.32;;;16.60;73.30;;;;;;4991661;28;20022;-68
2023/02/25 09:21:53;;;;;;;1.25;0.45;;;16.60;73.50;;;;;;4991466;28;20049;-67
2023/02/25 09:24:18;;;;;;;0.80;0.40;;;16.60;73.50;;;;;;4992900;28;20464;-68
2023/02/25 09:26:45;;;;;;;1.50;0.40;;;16.60;73.40;;;;;;4992723;28;20049;-67
2023/02/25 09:29:10;;;;;;;2.55;0.30;;;16.60;73.50;;;;;;4992780;28;20559;-67
2023/02/25 09:31:36;;;;;;;1.05;0.63;;;16.60;73.50;;;;;;4992887;28;20027;-67
2023/02/25 09:34:03;;;;;;;0.98;0.40;;;16.60;73.50;;;;;;4991621;28;20033;-67
2023/02/25 09:36:29;;;;;;;2.05;0.70;;;16.60;73.50;;;;;;4991842;28;20477;-67
2023/02/25 09:38:55;;;;;;;1.35;0.43;;;16.60;73.40;;;;;;4991240;28;20444;-67
2023/02/25 09:41:39;;;;;;;1.58;0.57;;;16.60;73.50;;;;;;4992745;28;20030;-67
2023/02/25 09:44:31;;;;;;;0.88;0.73;;;16.60;73.60;;;;;;4992838;28;20596;-68
2023/02/25 09:47:01;;;;;;;0.50;0.50;;;16.60;73.50;;;;;;4991732;28;20029;-67
2023/02/25 09:49:39;;;;;;;3.30;0.60;;;16.60;73.60;;;;;;4991375;28;20056;-67
2023/02/25 09:52:27;;;;;;;0.95;0.47;;;16.60;73.60;;;;;;4991532;28;20022;-67
2023/02/25 09:55:31;;;;;;;1.27;0.77;;;16.60;73.70;;;;;;4991519;28;20062;-67
2023/02/25 09:58:13;;;;;;;2.28;0.55;;;16.60;73.60;;;;;;4990205;28;20141;-68
2023/02/25 10:00:46;;;;;;;0.85;0.52;;;16.60;73.70;;;;;;4984293;28;20505;-67
2023/02/25 10:03:55;;;;;;;1.35;0.80;;;16.50;73.70;;;;;;4974329;28;20472;-67
2023/02/25 10:06:36;;;;;;;0.80;0.50;;;16.50;73.70;;;;;;4973399;28;20038;-68
2023/02/25 10:09:23;;;;;;;2.13;0.57;;;16.50;73.70;;;;;;4994152;28;20014;-68
2023/02/25 10:11:59;;;;;;;2.28;0.80;;;16.50;73.80;;;;;;4978166;28;20081;-67
2023/02/25 10:14:33;;;;;;;1.20;0.65;;;16.50;73.70;;;;;;4978506;28;20037;-67
2023/02/25 10:17:17;;;;;;;2.22;0.63;;;16.50;73.70;;;;;;4993903;28;20034;-67
2023/02/25 10:20:17;;;;;;;1.75;0.60;;;16.50;73.70;;;;;;4993780;28;20035;-67
2023/02/25 10:23:13;;;;;;;1.58;0.73;;;16.50;73.80;;;;;;4993578;28;20133;-67
2023/02/25 10:26:09;;;;;;;1.98;0.80;;;16.50;73.70;;;;;;4993779;28;20034;-67
2023/02/25 10:28:35;;;;;;;2.33;0.70;;;16.50;73.70;;;;;;4990310;28;20049;-68
2023/02/25 10:31:02;;;;;;;1.88;0.60;;;16.50;73.70;;;;;;4977718;28;20047;-67
2023/02/25 10:33:32;;;;;;;1.92;0.68;;;16.50;73.90;;;;;;4994634;28;20030;-67
2023/02/25 10:36:15;;;;;;;0.80;0.70;;;16.50;73.90;;;;;;4994486;28;20022;-68
2023/02/25 10:38:45;;;;;;;1.15;0.70;;;16.50;73.80;;;;;;4994442;28;20477;-67
2023/02/25 10:41:11;;;;;;;1.42;0.63;;;16.40;73.70;;;;;;4994684;28;20033;-68
2023/02/25 10:43:37;;;;;;;2.00;0.93;;;16.40;73.90;;;;;;4994356;28;20034;-67
2023/02/25 10:46:19;;;;;;;1.70;0.82;;;16.40;73.80;;;;;;4995366;28;20506;-67
2023/02/25 10:49:19;;;;;;;2.47;0.63;;;16.40;73.70;;;;;;4994269;28;20022;-68
2023/02/25 10:52:03;;;;;;;1.38;0.63;;;16.40;73.70;;;;;;5000981;28;20054;-68
2023/02/25 10:54:33;;;;;;;1.90;0.80;;;16.40;73.80;;;;;;4995562;28;20027;-67
2023/02/25 10:57:01;;;;;;;0.88;0.60;;;16.40;73.90;;;;;;4993889;28;20026;-67
2023/02/25 10:59:29;;;;;;;1.92;0.88;;;16.40;73.90;;;;;;4993808;28;20046;-67
2023/02/25 11:01:55;;;;;;;2.75;0.77;;;16.40;74.00;;;;;;4994086;28;20028;-67
2023/02/25 11:04:36;;;;;;;3.00;0.80;;;16.40;73.90;;;;;;4994118;28;20097;-67
2023/02/25 11:07:22;;;;;;;1.67;0.85;;;16.40;73.70;;;;;;4993756;28;20042;-67
2023/02/25 11:09:48;;;;;;;1.73;0.80;;;16.40;73.80;;;;;;4993866;28;20560;-67
2023/02/25 11:12:18;;;;;;;1.58;1.00;;;16.40;73.90;;;;;;4993543;28;20121;-67
2023/02/25 11:14:44;;;;;;;1.38;0.90;;;16.40;73.90;;;;;;4993921;28;20057;-67
2023/02/25 11:17:12;;;;;;;1.92;0.77;;;16.40;73.90;;;;;;4992684;28;20062;-67
2023/02/25 11:19:39;;;;;;;1.30;0.73;;;16.40;73.90;;;;;;4994901;28;20019;-68
2023/02/25 11:22:10;;;;;;;1.80;0.88;;;16.30;73.80;;;;;;4993321;28;20045;-67
2023/02/25 11:24:37;;;;;;;1.50;0.88;;;16.40;73.90;;;;;;4993524;28;20125;-67
2023/02/25 11:27:04;;;;;;;1.38;0.80;;;16.30;73.80;;;;;;4993348;28;20472;-67
2023/02/25 11:29:31;;;;;;;2.08;0.70;;;16.30;73.80;;;;;;4993532;28;20034;-67
2023/02/25 11:32:13;;;;;;;2.55;0.98;;;16.30;73.80;;;;;;4993304;28;20081;-67
2023/02/25 11:34:46;;;;;;;1.00;0.77;;;16.30;73.90;;;;;;4993559;28;20074;-67
2023/02/25 11:37:35;;;;;;;1.67;0.88;;;16.30;74.00;;;;;;4993449;28;20026;-67
2023/02/25 11:40:01;;;;;;;1.55;1.02;;;16.30;74.90;;;;;;4993137;28;20520;-67
2023/02/25 11:42:29;;;;;;;1.27;0.70;;;16.30;74.10;;;;;;4993452;28;20047;-68
2023/02/25 11:45:00;;;;;;;1.40;0.90;;;16.30;74.10;;;;;;4994181;28;20084;-67
2023/02/25 11:47:36;;;;;;;2.38;1.10;;;16.30;74.10;;;;;;4993365;28;20077;-67
2023/02/25 11:50:12;;;;;;;0.98;0.73;;;16.30;74.10;;;;;;4992916;28;20026;-67
2023/02/25 11:52:43;;;;;;;3.38;0.90;;;16.30;74.20;;;;;;4994333;28;20027;-67
2023/02/25 11:55:18;;;;;;;1.05;0.82;;;16.30;74.30;;;;;;4992821;28;20436;-67
2023/02/25 11:58:05;;;;;;;1.60;0.82;;;16.30;74.20;;;;;;4994205;28;20026;-67
2023/02/25 12:00:37;;;;;;;1.27;0.77;;;16.30;74.20;;;;;;4994040;28;20493;-67
2023/02/25 12:03:23;;;;;;;1.20;0.90;;;16.30;74.40;;;;;;4992736;28;20081;-67
2023/02/25 12:06:01;;;;;;;1.40;0.90;;;16.20;74.30;;;;;;4994119;28;20497;-67
2023/02/25 12:08:34;;;;;;;1.63;0.90;;;16.30;74.40;;;;;;4992948;28;20076;-67
2023/02/25 12:11:07;;;;;;;1.75;0.80;;;16.20;74.40;;;;;;4992582;28;20046;-68
2023/02/25 12:13:53;;;;;;;1.67;0.88;;;16.20;74.40;;;;;;4992646;28;20113;-68
2023/02/25 12:16:30;;;;;;;1.02;0.90;;;16.20;74.40;;;;;;5011226;28;20092;-68
2023/02/25 12:19:30;;;;;;;2.80;0.75;;;16.20;74.30;;;;;;5011142;28;20041;-67
2023/02/25 12:22:14;;;;;;;1.80;0.80;;;16.20;74.40;;;;;;5010628;28;20125;-68
2023/02/25 12:24:42;;;;;;;1.55;0.85;;;16.20;74.40;;;;;;5011054;28;20038;-67
2023/02/25 12:27:41;;;;;;;1.65;0.80;;;16.20;73.70;;;;;;5010706;28;20097;-67
2023/02/25 12:30:24;;;;;;;1.77;1.05;;;16.20;72.90;;;;;;5009512;28;20037;-68
2023/02/25 12:33:20;;;;;;;2.53;1.08;;;16.30;72.10;;;;;;5010930;28;20088;-69
2023/02/25 12:35:55;;;;;;;2.42;1.15;;;16.30;71.80;;;;;;5010859;28;20037;-67
2023/02/25 12:38:51;;;;;;;1.48;1.10;;;16.30;71.50;;;;;;5010726;28;20427;-68
2023/02/25 12:41:22;;;;;;;2.70;1.20;;;16.30;71.40;;;;;;4946003;29;20040;-68
2023/02/25 12:43:50;;;;;;;1.77;1.10;;;16.30;71.20;;;;;;4933379;29;20036;-68
2023/02/25 12:46:43;;;;;;;1.80;0.90;;;16.30;71.00;;;;;;4949117;29;20040;-67
2023/02/25 12:49:21;;;;;;;4.28;0.82;;;16.30;71.00;;;;;;4932100;29;20074;-73
2023/02/25 12:52:05;;;;;;;3.72;1.08;;;16.50;70.70;;;;;;4920256;29;20040;-73
2023/02/25 12:55:08;;;;;;;1.35;0.80;;;16.60;70.30;;;;;;4914226;29;20404;-73
2023/02/25 12:57:52;;;;;;;1.60;0.95;;;16.70;70.10;;;;;;4922334;29;20050;-73
2023/02/25 13:00:42;;;;;;;3.15;1.00;;;16.80;69.70;;;;;;4920915;29;20181;-73
2023/02/25 13:03:37;;;;;;;2.05;0.93;;;16.90;69.40;;;;;;4917337;29;20063;-73
2023/02/25 13:06:24;;;;;;;2.55;0.98;;;17.00;69.30;;;;;;4908750;29;20511;-73